Time;durP1;ratioP1;P1;durP2;ratioP2;P2;SDS_P1;SDS_P2;PMS_P1;PMS_P2;Temp;Humidity;BMP_temperature;BMP_pressure;BME280_temperature;BME280_humidity;BME280_pressure;Samples;Min_cycle;Max_cycle;Signal;HPM_P1;HPM_P2
2021/03/28 00:00:15;;;;;;;1.57;1.07;;;;;;;3.17;79.83;101531.50;5050341;28;20183;-72
2021/03/28 00:02:51;;;;;;;0.23;0.23;;;;;;;3.14;79.15;101538.22;5049570;28;20182;-72
2021/03/28 00:05:22;;;;;;;0.40;0.40;;;;;;;3.08;79.68;101532.94;5050112;28;20253;-72
2021/03/28 00:07:51;;;;;;;0.47;0.47;;;;;;;3.05;79.94;101533.41;5049780;28;20647;-72
2021/03/28 00:10:44;;;;;;;4.90;1.97;;;;;;;3.05;79.30;101533.41;5048867;28;20180;-72
2021/03/28 00:13:12;;;;;;;2.30;1.30;;;;;;;2.99;79.92;101529.75;5050189;28;20726;-72
2021/03/28 00:15:42;;;;;;;1.80;1.13;;;;;;;2.95;79.85;101528.59;5050222;28;20258;-72
2021/03/28 00:18:29;;;;;;;0.57;0.57;;;;;;;2.94;80.06;101538.56;5049286;28;20187;-72
2021/03/28 00:21:19;;;;;;;0.27;0.27;;;;;;;2.86;80.35;101541.59;5048883;28;20627;-72
2021/03/28 00:23:49;;;;;;;7.33;0.50;;;;;;;2.85;80.36;101537.25;5050221;28;20172;-72
2021/03/28 00:26:34;;;;;;;0.20;0.20;;;;;;;2.92;80.00;101540.69;5049314;28;20202;-72
2021/03/28 00:29:22;;;;;;;0.57;0.57;;;;;;;2.92;79.70;101529.06;5050163;28;20171;-72
2021/03/28 00:32:07;;;;;;;0.17;0.10;;;;;;;2.97;79.15;101545.38;5049877;28;20489;-72
2021/03/28 00:34:37;;;;;;;1.20;1.10;;;;;;;2.93;79.15;101528.81;5049979;28;20183;-72
2021/03/28 00:37:08;;;;;;;1.17;0.43;;;;;;;2.90;79.25;101534.69;5049247;28;20175;-72
2021/03/28 00:39:43;;;;;;;0.00;0.00;;;;;;;2.92;79.07;101537.97;5049948;28;20524;-72
2021/03/28 00:42:20;;;;;;;0.40;0.40;;;;;;;2.89;79.39;101534.91;5050012;28;20178;-72
2021/03/28 00:44:53;;;;;;;0.90;0.90;;;;;;;2.89;79.05;101537.59;5049697;28;20207;-72
2021/03/28 00:47:27;;;;;;;0.60;0.60;;;;;;;2.90;78.85;101537.41;5049252;28;20167;-72
2021/03/28 00:50:16;;;;;;;3.57;0.67;;;;;;;2.93;78.72;101539.63;5050115;28;20900;-72
2021/03/28 00:52:53;;;;;;;0.80;0.60;;;;;;;2.97;78.47;101542.66;5051656;28;20183;-72
2021/03/28 00:55:23;;;;;;;0.70;0.67;;;;;;;2.94;78.47;101546.66;5053531;28;20413;-72
2021/03/28 00:58:40;;;;;;;11.10;0.90;;;;;;;2.94;78.65;101538.56;5052532;28;20175;-72
2021/03/28 01:01:27;;;;;;;5.77;1.30;;;;;;;2.97;78.40;101537.28;5053205;28;20595;-72
2021/03/28 01:04:06;;;;;;;1.13;1.13;;;;;;;2.99;78.37;101546.78;5053158;28;20163;-72
2021/03/28 01:06:45;;;;;;;1.80;1.20;;;;;;;2.95;78.46;101529.41;5052874;28;20214;-72
2021/03/28 01:09:10;;;;;;;1.50;1.40;;;;;;;2.90;78.85;101529.31;5053290;28;20207;-72
2021/03/28 01:11:41;;;;;;;1.03;0.90;;;;;;;2.95;78.37;101528.59;5053068;28;20701;-72
2021/03/28 01:14:17;;;;;;;0.10;0.10;;;;;;;2.95;78.27;101524.00;5053144;28;20178;-72
2021/03/28 01:17:15;;;;;;;0.63;0.63;;;;;;;2.99;78.29;101524.34;5050655;28;20551;-72
2021/03/28 01:20:28;;;;;;;13.63;1.23;;;;;;;2.98;78.23;101522.72;5052863;28;20537;-72
2021/03/28 01:23:09;;;;;;;0.27;0.27;;;;;;;2.97;78.11;101526.47;5045473;28;20666;-72
2021/03/28 01:25:56;;;;;;;5.30;1.90;;;;;;;2.99;77.96;101518.97;5052559;28;20211;-73
2021/03/28 01:28:40;;;;;;;2.03;1.27;;;;;;;3.02;77.56;101514.97;5051071;28;20179;-72
2021/03/28 01:31:33;;;;;;;0.53;0.53;;;;;;;3.05;77.41;101523.44;5052609;28;20421;-72
2021/03/28 01:34:18;;;;;;;0.33;0.23;;;;;;;3.07;77.57;101529.41;5052739;28;20171;-72
2021/03/28 01:37:18;;;;;;;0.00;0.00;;;;;;;3.07;77.77;101515.09;5051933;28;20183;-72
2021/03/28 01:40:01;;;;;;;0.43;0.43;;;;;;;3.07;77.49;101510.53;4983620;28;20218;-72
2021/03/28 01:42:56;;;;;;;0.20;0.20;;;;;;;3.08;77.73;101512.16;5052533;28;20225;-72
2021/03/28 01:45:33;;;;;;;3.07;0.57;;;;;;;3.08;77.43;101512.16;5052244;28;20211;-72
2021/03/28 01:48:17;;;;;;;0.20;0.20;;;;;;;3.07;77.52;101513.22;5050953;28;20189;-72
2021/03/28 01:51:19;;;;;;;0.43;0.43;;;;;;;3.09;77.34;101510.28;5052314;28;20505;-72
2021/03/28 01:54:08;;;;;;;1.43;1.20;;;;;;;3.11;76.64;101500.88;5052359;28;20496;-72
2021/03/28 01:56:43;;;;;;;0.20;0.20;;;;;;;3.12;77.16;101517.91;5010389;28;20225;-72
2021/03/28 01:59:19;;;;;;;1.00;0.50;;;;;;;3.12;77.23;101521.44;5054479;28;20178;-72
2021/03/28 02:01:53;;;;;;;0.77;0.77;;;;;;;3.12;77.11;101517.91;5072579;28;20178;-72
2021/03/28 02:04:43;;;;;;;1.20;1.10;;;;;;;3.12;76.71;101512.50;5071961;28;20678;-72
2021/03/28 02:07:33;;;;;;;0.20;0.20;;;;;;;3.14;76.21;101513.91;5071801;28;20171;-72
2021/03/28 02:10:27;;;;;;;1.50;1.30;;;;;;;3.15;76.14;101504.75;5072043;28;20213;-72
2021/03/28 02:13:05;;;;;;;9.13;1.83;;;;;;;3.13;76.27;101512.25;5070672;28;20175;-72
2021/03/28 02:15:40;;;;;;;0.97;0.47;;;;;;;3.12;76.08;101510.63;5071746;28;20174;-72
2021/03/28 02:18:21;;;;;;;0.20;0.20;;;;;;;3.10;75.69;101520.03;5071184;28;20184;-72
2021/03/28 02:21:14;;;;;;;0.20;0.20;;;;;;;3.10;75.93;101511.91;5071860;28;20171;-72
2021/03/28 02:23:46;;;;;;;6.70;1.47;;;;;;;3.10;76.04;101501.94;5071847;28;20626;-72
2021/03/28 02:26:42;;;;;;;1.00;1.00;;;;;;;3.10;75.55;101501.94;5070960;28;20194;-73
2021/03/28 02:29:20;;;;;;;0.00;0.00;;;;;;;3.09;75.78;101494.09;5071681;28;20649;-72
2021/03/28 02:32:06;;;;;;;0.53;0.53;;;;;;;3.08;75.94;101500.53;5071599;28;20208;-72
2021/03/28 02:34:57;;;;;;;0.97;0.97;;;;;;;3.05;75.68;101493.75;5059203;28;20193;-72
2021/03/28 02:38:02;;;;;;;0.57;0.57;;;;;;;3.09;75.17;101500.31;5070896;28;20187;-72
2021/03/28 02:40:33;;;;;;;0.33;0.33;;;;;;;3.10;75.02;101493.84;5071535;28;20170;-72
2021/03/28 02:43:27;;;;;;;0.87;0.83;;;;;;;3.11;75.28;101491.97;5071478;28;20200;-72
2021/03/28 02:46:30;;;;;;;0.57;0.27;;;;;;;3.10;75.58;101503.81;5071292;28;20239;-72
2021/03/28 02:49:17;;;;;;;0.37;0.33;;;;;;;3.11;74.71;101500.06;5071535;28;20174;-72
2021/03/28 02:52:27;;;;;;;0.00;0.00;;;;;;;3.11;74.72;101494.66;5071300;28;20167;-72
2021/03/28 02:55:19;;;;;;;0.50;0.50;;;;;;;3.12;74.58;101507.94;5037295;28;20543;-72
2021/03/28 02:58:22;;;;;;;8.20;0.70;;;;;;;3.17;74.41;101499.13;5070215;28;20536;-72
2021/03/28 03:01:17;;;;;;;0.50;0.50;;;;;;;3.14;74.74;101508.50;5070887;28;20181;-72
2021/03/28 03:04:01;;;;;;;2.80;1.03;;;;;;;3.17;74.25;101505.34;5070988;28;20171;-72
2021/03/28 03:07:08;;;;;;;1.70;0.67;;;;;;;3.21;73.93;101503.00;5070551;28;20194;-72
2021/03/28 03:09:58;;;;;;;0.10;0.10;;;;;;;3.23;73.46;101495.47;5071092;28;20185;-73
2021/03/28 03:12:53;;;;;;;2.37;0.93;;;;;;;3.23;73.76;101495.47;5071005;28;20365;-72
2021/03/28 03:15:40;;;;;;;2.57;1.07;;;;;;;3.23;73.67;101485.50;5070463;28;20175;-72
2021/03/28 03:18:14;;;;;;;0.30;0.20;;;;;;;3.24;73.43;101487.13;5070283;28;20182;-72
2021/03/28 03:21:06;;;;;;;0.10;0.10;;;;;;;3.25;73.51;101488.78;5070766;28;20182;-72
2021/03/28 03:24:20;;;;;;;3.40;0.20;;;;;;;3.26;73.54;101484.19;5069582;28;20780;-72
2021/03/28 03:27:01;;;;;;;1.33;0.40;;;;;;;3.27;73.77;101483.97;5032044;28;20643;-72
2021/03/28 03:29:38;;;;;;;0.30;0.30;;;;;;;3.41;72.57;101478.31;5069435;28;20757;-72
2021/03/28 03:32:14;;;;;;;0.43;0.43;;;;;;;3.44;72.19;101488.63;5070593;28;20170;-72
2021/03/28 03:34:52;;;;;;;0.43;0.20;;;;;;;3.48;72.09;101474.44;5070717;28;20198;-72
2021/03/28 03:37:29;;;;;;;11.53;0.60;;;;;;;3.52;72.25;101477.47;5070398;28;20181;-73
2021/03/28 03:40:29;;;;;;;0.00;0.00;;;;;;;3.53;72.04;101482.63;5070852;28;20265;-72
2021/03/28 03:43:48;;;;;;;0.23;0.23;;;;;;;3.60;70.94;101485.19;5054171;28;20191;-72
2021/03/28 03:46:31;;;;;;;0.00;0.00;;;;;;;3.64;71.32;101504.47;5027647;28;20553;-72
2021/03/28 03:49:15;;;;;;;0.07;0.07;;;;;;;3.64;71.53;101507.16;5028032;28;20640;-72
2021/03/28 03:51:55;;;;;;;0.00;0.00;;;;;;;3.67;71.20;101503.97;5057719;28;20233;-72
2021/03/28 03:54:59;;;;;;;0.20;0.20;;;;;;;3.67;71.17;101495.88;5070564;28;20656;-72
2021/03/28 03:57:51;;;;;;;0.30;0.30;;;;;;;3.69;70.71;101494.56;5069760;28;20616;-72
2021/03/28 04:00:26;;;;;;;0.40;0.10;;;;;;;3.67;70.98;101491.28;5070530;28;20638;-72
2021/03/28 04:03:19;;;;;;;0.03;0.03;;;;;;;3.66;70.71;101483.41;5070435;28;20169;-72
2021/03/28 04:05:53;;;;;;;0.30;0.27;;;;;;;3.65;70.79;101500.69;5070572;28;20205;-72
2021/03/28 04:08:25;;;;;;;0.20;0.20;;;;;;;3.64;70.92;101490.94;5070335;28;20177;-72
2021/03/28 04:11:19;;;;;;;0.20;0.20;;;;;;;3.59;71.68;101491.63;5070337;28;20171;-72
2021/03/28 04:14:09;;;;;;;0.80;0.33;;;;;;;3.56;71.97;101487.53;5070632;28;20170;-72
2021/03/28 04:16:59;;;;;;;6.23;0.93;;;;;;;3.54;71.91;101486.16;5069879;28;20179;-72
2021/03/28 04:20:01;;;;;;;0.40;0.40;;;;;;;3.52;72.04;101494.50;5070050;28;20197;-72
2021/03/28 04:22:32;;;;;;;2.43;0.57;;;;;;;3.49;72.09;101491.44;5070245;28;20178;-72
2021/03/28 04:25:28;;;;;;;0.20;0.20;;;;;;;3.47;72.52;101496.25;5070145;28;20205;-73
2021/03/28 04:28:12;;;;;;;0.90;0.90;;;;;;;3.45;72.34;101495.66;5036064;28;20194;-72
2021/03/28 04:30:57;;;;;;;0.50;0.50;;;;;;;3.41;72.28;101491.81;5073943;28;20662;-73
2021/03/28 04:33:30;;;;;;;1.13;0.83;;;;;;;3.41;72.08;101487.22;5073787;28;20178;-72
2021/03/28 04:36:19;;;;;;;0.47;0.47;;;;;;;3.39;72.40;101491.22;5073844;28;20190;-72
2021/03/28 04:39:06;;;;;;;0.00;0.00;;;;;;;3.40;71.73;101490.16;5073251;28;20227;-72
2021/03/28 04:42:04;;;;;;;0.30;0.30;;;;;;;3.42;72.64;101494.28;5073695;28;20297;-72
2021/03/28 04:44:38;;;;;;;0.53;0.30;;;;;;;3.40;72.32;101485.59;5073672;28;20218;-72
2021/03/28 04:47:24;;;;;;;4.27;0.63;;;;;;;3.44;72.06;101491.31;5073640;28;20175;-72
2021/03/28 04:50:10;;;;;;;1.17;1.17;;;;;;;3.44;71.68;101484.03;5073783;28;20181;-72
2021/03/28 04:53:01;;;;;;;1.17;1.07;;;;;;;3.48;72.16;101481.72;5073508;28;20178;-72
2021/03/28 04:55:45;;;;;;;0.10;0.10;;;;;;;3.49;72.18;101483.34;5073822;28;20643;-72
2021/03/28 04:58:41;;;;;;;1.00;0.83;;;;;;;3.51;71.96;101492.84;5073023;28;20577;-72
2021/03/28 05:01:42;;;;;;;2.87;0.87;;;;;;;3.51;72.27;101486.63;5073497;28;20189;-72
2021/03/28 05:04:25;;;;;;;0.00;0.00;;;;;;;3.52;72.29;101488.25;5004993;28;20186;-72
2021/03/28 05:07:09;;;;;;;0.43;0.43;;;;;;;3.53;72.48;101492.59;5073222;28;20179;-72
2021/03/28 05:10:04;;;;;;;0.97;0.63;;;;;;;3.58;71.90;101490.00;5073536;28;20662;-72
2021/03/28 05:12:46;;;;;;;0.20;0.20;;;;;;;3.64;72.12;101499.06;5032220;28;20191;-73
2021/03/28 05:15:23;;;;;;;0.27;0.27;;;;;;;3.64;71.96;101486.34;5073542;28;20179;-72
2021/03/28 05:18:07;;;;;;;0.87;0.87;;;;;;;3.67;72.22;101488.56;5073405;28;20166;-72
2021/03/28 05:20:58;;;;;;;0.00;0.00;;;;;;;3.70;72.05;101493.50;5073456;28;20183;-72
2021/03/28 05:23:50;;;;;;;1.57;0.70;;;;;;;3.73;72.21;101484.91;5073661;28;20170;-72
2021/03/28 05:26:19;;;;;;;1.17;0.83;;;;;;;3.75;72.06;101490.06;5072400;28;20198;-72
2021/03/28 05:28:59;;;;;;;2.33;0.53;;;;;;;3.76;72.39;101481.75;5073384;28;20546;-72
2021/03/28 05:32:05;;;;;;;0.73;0.73;;;;;;;3.78;72.14;101489.59;5073467;28;20170;-72
2021/03/28 05:35:07;;;;;;;1.10;0.63;;;;;;;3.79;72.71;101489.38;5073156;28;20601;-72
2021/03/28 05:37:32;;;;;;;0.00;0.00;;;;;;;3.81;72.06;101481.00;5072996;28;20177;-72
2021/03/28 05:40:01;;;;;;;5.70;1.17;;;;;;;3.83;72.31;101478.88;5072138;28;20178;-72
2021/03/28 05:43:12;;;;;;;5.43;1.23;;;;;;;3.85;72.47;101474.88;5072241;28;20182;-72
2021/03/28 05:46:05;;;;;;;0.47;0.47;;;;;;;3.89;73.05;101480.59;5073063;28;20264;-72
2021/03/28 05:48:45;;;;;;;0.33;0.33;;;;;;;3.92;72.87;101488.25;5034090;28;20265;-72
2021/03/28 05:51:47;;;;;;;0.50;0.50;;;;;;;3.97;73.33;101479.41;5081782;28;20163;-72
2021/03/28 05:54:38;;;;;;;22.47;0.93;;;;;;;4.02;72.80;101483.03;5075946;28;20186;-72
2021/03/28 05:57:22;;;;;;;0.40;0.40;;;;;;;4.06;73.40;101476.09;5072466;28;20187;-72
2021/03/28 06:00:06;;;;;;;0.87;0.70;;;;;;;4.11;72.87;101478.88;5072063;28;20255;-72
2021/03/28 06:02:47;;;;;;;0.67;0.47;;;;;;;4.13;73.17;101481.34;5072306;28;20187;-72
2021/03/28 06:05:48;;;;;;;0.53;0.53;;;;;;;4.14;72.75;101486.50;5070825;28;20566;-71
2021/03/28 06:08:14;;;;;;;0.80;0.77;;;;;;;4.16;72.82;101487.06;5071753;28;20174;-72
2021/03/28 06:11:19;;;;;;;4.10;2.63;;;;;;;4.19;73.26;101491.16;5072122;28;20697;-72
2021/03/28 06:14:05;;;;;;;1.27;1.17;;;;;;;4.23;72.72;101494.22;5072102;28;20175;-72
2021/03/28 06:16:49;;;;;;;0.50;0.40;;;;;;;4.23;73.53;101496.94;5071710;28;20182;-72
2021/03/28 06:19:45;;;;;;;3.13;1.03;;;;;;;4.28;73.45;101491.59;5071610;28;20260;-72
2021/03/28 06:22:45;;;;;;;0.43;0.43;;;;;;;4.30;73.80;101501.13;5070733;28;20190;-72
2021/03/28 06:25:50;;;;;;;10.67;1.43;;;;;;;4.30;73.37;101503.00;5070493;28;20203;-72
2021/03/28 06:28:40;;;;;;;1.27;1.17;;;;;;;4.37;72.83;101507.22;5071465;28;20171;-72
2021/03/28 06:31:14;;;;;;;10.33;1.80;;;;;;;4.43;73.62;101506.22;5071776;28;20182;-72
2021/03/28 06:34:01;;;;;;;2.00;1.20;;;;;;;4.46;73.45;101515.72;5071865;28;20270;-72
2021/03/28 06:37:03;;;;;;;0.27;0.17;;;;;;;4.50;72.76;101514.19;5071485;28;20245;-72
2021/03/28 06:40:11;;;;;;;1.10;1.00;;;;;;;4.48;73.68;101505.47;5071165;28;20684;-72
2021/03/28 06:42:58;;;;;;;5.30;0.73;;;;;;;4.53;72.70;101513.69;5042173;28;20627;-72
2021/03/28 06:45:47;;;;;;;1.20;1.17;;;;;;;4.54;73.34;101499.09;5071367;28;20216;-72
2021/03/28 06:48:37;;;;;;;0.80;0.80;;;;;;;4.55;73.08;101508.84;5071424;28;20531;-72
2021/03/28 06:51:42;;;;;;;0.10;0.10;;;;;;;4.57;73.12;101504.03;5070631;28;20650;-72
2021/03/28 06:54:26;;;;;;;1.87;1.77;;;;;;;4.61;72.38;101505.16;5071131;28;20182;-72
2021/03/28 06:57:24;;;;;;;2.33;0.57;;;;;;;4.70;72.74;101508.28;5070866;28;20533;-72
2021/03/28 07:00:23;;;;;;;7.70;0.87;;;;;;;4.81;72.39;101504.69;5070837;28;20178;-72
2021/03/28 07:03:26;;;;;;;0.00;0.00;;;;;;;4.89;72.25;101503.44;5071158;28;20572;-72
2021/03/28 07:05:56;;;;;;;0.83;0.83;;;;;;;4.99;71.64;101515.25;5071423;28;20592;-72
2021/03/28 07:08:51;;;;;;;0.30;0.30;;;;;;;5.15;72.59;101518.19;5070847;28;20179;-71
2021/03/28 07:11:30;;;;;;;0.53;0.53;;;;;;;5.25;71.91;101510.22;5071009;28;20750;-71
2021/03/28 07:13:55;;;;;;;0.90;0.70;;;;;;;5.26;72.01;101512.66;5069021;28;20202;-71
2021/03/28 07:16:46;;;;;;;2.87;1.10;;;;;;;5.34;72.26;101508.69;5069322;28;20205;-71
2021/03/28 07:19:42;;;;;;;0.67;0.60;;;;;;;5.43;73.03;101512.63;5070545;28;20185;-71
2021/03/28 07:22:55;;;;;;;0.27;0.27;;;;;;;5.48;72.08;101504.56;5070901;28;20171;-71
2021/03/28 07:25:37;;;;;;;5.50;1.43;;;;;;;5.56;72.10;101497.88;5008552;28;20276;-71
2021/03/28 07:28:40;;;;;;;4.50;1.40;;;;;;;5.66;71.22;101498.03;5070419;28;20170;-71
2021/03/28 07:31:17;;;;;;;0.07;0.00;;;;;;;5.70;71.38;101499.16;5070792;28;20211;-71
2021/03/28 07:33:48;;;;;;;0.10;0.10;;;;;;;5.76;71.52;101495.41;5070800;28;20205;-71
2021/03/28 07:36:51;;;;;;;0.00;0.00;;;;;;;5.83;70.82;101492.53;5070543;28;20575;-72
2021/03/28 07:39:38;;;;;;;1.13;0.80;;;;;;;5.85;70.71;101488.47;5070552;28;20174;-73
2021/03/28 07:42:31;;;;;;;6.03;1.13;;;;;;;5.91;71.03;101481.22;5070502;28;20186;-72
2021/03/28 07:45:27;;;;;;;5.23;0.80;;;;;;;6.03;71.12;101498.19;5068428;28;20755;-73
2021/03/28 07:48:05;;;;;;;1.00;0.77;;;;;;;6.13;71.44;101490.16;5068829;28;20193;-73
2021/03/28 07:51:02;;;;;;;6.87;0.77;;;;;;;6.28;70.85;101491.38;5070376;28;20174;-73
2021/03/28 07:53:53;;;;;;;0.23;0.23;;;;;;;6.61;69.84;101487.59;5070551;28;20630;-73
2021/03/28 07:56:56;;;;;;;0.30;0.30;;;;;;;6.74;69.00;101498.84;5070134;28;20175;-73
2021/03/28 07:59:30;;;;;;;1.73;1.63;;;;;;;6.64;69.53;101481.66;5070611;28;20182;-72
2021/03/28 08:02:36;;;;;;;1.00;0.90;;;;;;;6.70;69.82;101486.88;5073241;28;20166;-73
2021/03/28 08:05:43;;;;;;;0.10;0.10;;;;;;;6.61;70.14;101493.84;5074434;28;20700;-73
2021/03/28 08:08:31;;;;;;;3.40;1.17;;;;;;;6.70;70.41;101488.78;5074255;28;20653;-73
2021/03/28 08:11:22;;;;;;;0.50;0.50;;;;;;;6.75;69.43;101499.66;5074531;28;20167;-73
2021/03/28 08:14:17;;;;;;;0.53;0.33;;;;;;;6.76;70.01;101490.44;5074381;28;20261;-73
2021/03/28 08:17:01;;;;;;;0.50;0.37;;;;;;;6.79;70.49;101498.06;5073996;28;20182;-73
2021/03/28 08:19:48;;;;;;;0.60;0.60;;;;;;;6.83;70.31;101504.63;5074150;28;20178;-73
2021/03/28 08:23:04;;;;;;;0.80;0.80;;;;;;;6.80;69.78;101510.59;5074149;28;20259;-73
2021/03/28 08:26:06;;;;;;;2.30;1.33;;;;;;;6.76;70.92;101514.88;5029144;28;20636;-73
2021/03/28 08:28:50;;;;;;;0.83;0.83;;;;;;;6.83;71.06;101518.22;5069682;28;20740;-72
2021/03/28 08:31:33;;;;;;;1.67;0.97;;;;;;;6.88;71.18;101512.81;5073453;28;20186;-73
2021/03/28 08:34:11;;;;;;;0.40;0.10;;;;;;;6.97;70.89;101516.69;5071044;28;20179;-71
2021/03/28 08:36:57;;;;;;;0.67;0.50;;;;;;;7.01;70.53;101503.41;5073436;28;20213;-71
2021/03/28 08:39:50;;;;;;;1.17;0.43;;;;;;;7.06;70.09;101508.84;5073899;28;20182;-73
2021/03/28 08:42:43;;;;;;;1.83;1.70;;;;;;;7.05;70.38;101512.66;5073824;28;20181;-73
2021/03/28 08:45:56;;;;;;;2.47;0.20;;;;;;;7.11;70.36;101508.91;5073659;28;20311;-74
2021/03/28 08:48:29;;;;;;;3.57;1.57;;;;;;;7.14;71.17;101500.22;4991315;28;20212;-71
2021/03/28 08:51:13;;;;;;;0.47;0.47;;;;;;;7.14;70.29;101505.66;4991423;28;20258;-71
2021/03/28 08:53:51;;;;;;;0.70;0.70;;;;;;;7.28;70.13;101514.16;5043534;28;20183;-71
2021/03/28 08:56:40;;;;;;;1.07;0.60;;;;;;;7.50;70.27;101500.41;5073079;28;20202;-71
2021/03/28 08:59:08;;;;;;;1.30;1.20;;;;;;;7.76;69.86;101507.59;5073342;28;20162;-71
2021/03/28 09:01:48;;;;;;;0.73;0.73;;;;;;;7.91;67.90;101507.66;5073156;28;20178;-70
2021/03/28 09:04:29;;;;;;;4.70;1.53;;;;;;;8.09;69.55;101505.50;5072718;28;20174;-71
2021/03/28 09:07:09;;;;;;;0.20;0.20;;;;;;;8.16;67.85;101509.63;5071538;28;20181;-70
2021/03/28 09:09:46;;;;;;;2.70;0.90;;;;;;;8.12;67.38;101503.09;5071639;28;20182;-71
2021/03/28 09:12:42;;;;;;;4.60;1.20;;;;;;;8.21;68.97;101509.63;5072030;28;20205;-70
2021/03/28 09:15:09;;;;;;;0.90;0.77;;;;;;;8.28;68.62;101509.38;5072969;28;20261;-72
2021/03/28 09:17:50;;;;;;;0.60;0.40;;;;;;;8.23;67.92;101503.91;5072609;28;20175;-72
2021/03/28 09:20:38;;;;;;;0.97;0.97;;;;;;;8.35;67.66;101504.50;5072509;28;20270;-72
2021/03/28 09:23:03;;;;;;;0.83;0.70;;;;;;;8.33;67.92;101504.75;5071758;28;20232;-71
2021/03/28 09:25:47;;;;;;;0.60;0.60;;;;;;;8.43;67.14;101514.06;5072665;28;20594;-71
2021/03/28 09:28:37;;;;;;;0.27;0.27;;;;;;;8.32;68.16;101499.59;5072195;28;20232;-71
2021/03/28 09:31:30;;;;;;;0.50;0.40;;;;;;;8.43;68.43;101505.91;5072817;28;20175;-71
2021/03/28 09:34:12;;;;;;;1.13;0.97;;;;;;;8.45;67.18;101503.72;5073003;28;20179;-71
2021/03/28 09:36:41;;;;;;;0.67;0.60;;;;;;;8.42;68.02;101501.53;5072109;28;20531;-71
2021/03/28 09:39:22;;;;;;;0.00;0.00;;;;;;;8.43;67.06;101500.44;5072726;28;20177;-71
2021/03/28 09:42:05;;;;;;;0.40;0.40;;;;;;;8.37;67.04;101506.97;5072023;28;20642;-71
2021/03/28 09:44:54;;;;;;;0.87;0.80;;;;;;;8.40;67.22;101498.28;5072195;28;20213;-70
2021/03/28 09:47:35;;;;;;;0.77;0.47;;;;;;;8.39;67.93;101493.88;5051385;28;20186;-71
2021/03/28 09:50:19;;;;;;;0.60;0.50;;;;;;;8.46;67.41;101500.72;5072419;28;20178;-71
2021/03/28 09:53:04;;;;;;;0.93;0.30;;;;;;;8.44;66.55;101485.75;5072212;28;20170;-71
2021/03/28 09:55:42;;;;;;;0.53;0.53;;;;;;;8.53;67.71;101490.34;5072291;28;20181;-71
2021/03/28 09:58:55;;;;;;;2.43;2.00;;;;;;;8.67;66.95;101490.63;5071729;28;20330;-71
2021/03/28 10:01:46;;;;;;;1.77;0.70;;;;;;;8.76;67.26;101494.47;5070311;28;20753;-71
2021/03/28 10:04:29;;;;;;;0.40;0.40;;;;;;;8.74;66.74;101493.09;5072307;28;20206;-71
2021/03/28 10:06:59;;;;;;;0.93;0.60;;;;;;;8.81;68.10;101497.16;5070343;28;20233;-71
2021/03/28 10:09:37;;;;;;;0.27;0.27;;;;;;;8.94;66.25;101493.06;5072006;28;20216;-71
2021/03/28 10:12:18;;;;;;;0.10;0.10;;;;;;;8.81;66.58;101491.72;5071793;28;20224;-71
2021/03/28 10:15:07;;;;;;;0.10;0.10;;;;;;;8.84;65.90;101488.47;5071844;28;20279;-70
2021/03/28 10:17:50;;;;;;;3.30;0.83;;;;;;;8.99;66.52;101478.66;5069279;28;20179;-70
2021/03/28 10:20:41;;;;;;;1.43;0.60;;;;;;;9.15;66.41;101481.06;5071633;28;20198;-71
2021/03/28 10:23:09;;;;;;;4.03;0.40;;;;;;;9.28;65.86;101471.47;5071745;28;20175;-71
2021/03/28 10:25:47;;;;;;;5.83;0.60;;;;;;;9.29;65.28;101477.75;5070523;28;20203;-71
2021/03/28 10:28:47;;;;;;;0.00;0.00;;;;;;;9.38;65.00;101468.69;5071363;28;20247;-71
2021/03/28 10:31:21;;;;;;;0.67;0.30;;;;;;;9.46;65.58;101468.13;5070467;28;20182;-71
2021/03/28 10:34:05;;;;;;;0.63;0.57;;;;;;;9.59;65.41;101471.38;5071987;28;20269;-71
2021/03/28 10:36:32;;;;;;;0.30;0.30;;;;;;;9.69;64.90;101460.38;5071242;28;20231;-71
2021/03/28 10:39:12;;;;;;;0.83;0.60;;;;;;;9.63;65.07;101456.88;5070526;28;20239;-71
2021/03/28 10:41:53;;;;;;;1.40;1.07;;;;;;;9.59;64.71;101463.19;5071440;28;20642;-71
2021/03/28 10:44:28;;;;;;;1.50;1.40;;;;;;;9.68;64.89;101456.84;5070347;28;20179;-71
2021/03/28 10:46:53;;;;;;;1.80;0.60;;;;;;;9.73;65.12;101453.28;5071004;28;20570;-71
2021/03/28 10:50:07;;;;;;;1.37;0.63;;;;;;;9.78;64.31;101448.63;5071511;28;20166;-71
2021/03/28 10:53:10;;;;;;;0.30;0.30;;;;;;;9.77;63.69;101449.72;5069959;28;20186;-71
2021/03/28 10:55:53;;;;;;;1.13;0.50;;;;;;;9.84;63.74;101436.59;5071331;28;20633;-72
2021/03/28 10:58:34;;;;;;;0.70;0.60;;;;;;;10.09;63.60;101446.50;5070288;28;20191;-72
2021/03/28 11:01:14;;;;;;;0.63;0.63;;;;;;;10.36;61.78;101431.59;5070547;28;20194;-72
2021/03/28 11:04:10;;;;;;;0.10;0.10;;;;;;;10.68;60.90;101422.84;5069653;28;20657;-72
2021/03/28 11:07:07;;;;;;;2.83;0.80;;;;;;;10.74;62.77;101421.72;5070600;28;20310;-72
2021/03/28 11:09:51;;;;;;;0.47;0.47;;;;;;;11.10;62.12;101416.66;5071011;28;20257;-72
2021/03/28 11:12:19;;;;;;;1.00;1.00;;;;;;;11.38;60.84;101419.63;5071286;28;20224;-72
2021/03/28 11:15:10;;;;;;;3.30;0.37;;;;;;;11.43;59.83;101411.34;5071042;28;20179;-72
2021/03/28 11:17:51;;;;;;;0.87;0.47;;;;;;;11.30;58.43;101400.03;5070759;28;20198;-71
2021/03/28 11:20:43;;;;;;;12.63;0.77;;;;;;;11.40;57.39;101401.00;5071171;28;20163;-72
2021/03/28 11:23:50;;;;;;;0.20;0.20;;;;;;;11.31;56.67;101398.94;5067793;28;20190;-72
2021/03/28 11:26:34;;;;;;;0.30;0.30;;;;;;;11.30;58.02;101391.00;5066831;28;20712;-72
2021/03/28 11:29:08;;;;;;;0.60;0.53;;;;;;;11.29;57.13;101392.13;5051269;28;20183;-72
2021/03/28 11:31:55;;;;;;;0.37;0.23;;;;;;;11.33;57.04;101399.44;5050917;28;20197;-73
2021/03/28 11:35:16;;;;;;;0.93;0.93;;;;;;;11.39;58.69;101405.66;5050621;28;20175;-72
2021/03/28 11:37:44;;;;;;;0.20;0.20;;;;;;;11.61;57.85;101391.41;5050136;28;20508;-71
2021/03/28 11:40:31;;;;;;;2.20;0.63;;;;;;;11.93;56.07;101385.22;5050856;28;20163;-71
2021/03/28 11:43:06;;;;;;;0.10;0.10;;;;;;;11.93;55.63;101396.19;5050309;28;20708;-72
2021/03/28 11:45:53;;;;;;;0.80;0.80;;;;;;;11.85;57.07;101391.38;5056186;28;20628;-72
2021/03/28 11:48:38;;;;;;;0.23;0.23;;;;;;;12.15;55.69;101382.69;5050418;28;20231;-73
2021/03/28 11:51:22;;;;;;;0.10;0.10;;;;;;;12.14;54.91;101385.72;5049619;28;20178;-73
2021/03/28 11:54:08;;;;;;;0.07;0.07;;;;;;;11.71;54.89;101385.78;5050928;28;20206;-73
2021/03/28 11:56:40;;;;;;;0.77;0.60;;;;;;;11.76;56.27;101380.25;5042924;28;20191;-72
2021/03/28 11:59:29;;;;;;;1.03;1.03;;;;;;;11.75;55.12;101375.88;5054250;28;20175;-73
2021/03/28 12:01:55;;;;;;;1.10;0.70;;;;;;;11.66;55.87;101390.53;5053557;28;20191;-72
2021/03/28 12:04:23;;;;;;;1.60;0.80;;;;;;;11.62;55.31;101385.66;5050518;28;20217;-72
2021/03/28 12:06:56;;;;;;;0.10;0.10;;;;;;;11.54;56.01;101388.22;5048203;28;20210;-72
2021/03/28 12:09:31;;;;;;;0.10;0.10;;;;;;;11.61;56.29;101384.03;5050297;28;20210;-72
2021/03/28 12:12:13;;;;;;;1.83;0.60;;;;;;;11.70;54.50;101380.59;5050248;28;20175;-72
2021/03/28 12:14:38;;;;;;;1.07;0.40;;;;;;;11.77;52.76;101387.34;5050474;28;20585;-72
2021/03/28 12:17:09;;;;;;;3.40;1.53;;;;;;;11.77;52.22;101379.13;5049240;28;20210;-72
2021/03/28 12:19:57;;;;;;;0.30;0.30;;;;;;;11.85;51.81;101373.00;5049993;28;20175;-72
2021/03/28 12:22:28;;;;;;;0.40;0.40;;;;;;;11.88;52.20;101375.19;5059417;28;20683;-72
2021/03/28 12:25:06;;;;;;;4.23;0.37;;;;;;;11.92;50.76;101369.91;5049088;28;20201;-72
2021/03/28 12:27:40;;;;;;;0.00;0.00;;;;;;;11.96;51.80;101364.66;5047803;28;20182;-72
2021/03/28 12:30:28;;;;;;;0.20;0.20;;;;;;;11.89;50.83;101376.81;5049765;28;20259;-72
2021/03/28 12:33:14;;;;;;;0.40;0.33;;;;;;;11.85;51.91;101369.47;5049796;28;20178;-73
2021/03/28 12:35:39;;;;;;;0.40;0.40;;;;;;;11.83;51.94;101367.03;5049790;28;20665;-72
2021/03/28 12:38:39;;;;;;;1.33;1.23;;;;;;;11.78;51.44;101371.75;5048965;28;20505;-72
2021/03/28 12:41:13;;;;;;;0.13;0.13;;;;;;;11.74;52.26;101362.50;5049907;28;20163;-72
2021/03/28 12:43:51;;;;;;;1.00;0.67;;;;;;;11.74;52.20;101381.66;5049250;28;20171;-72
2021/03/28 12:46:31;;;;;;;0.03;0.03;;;;;;;11.80;52.57;101366.81;5048788;28;20203;-72
2021/03/28 12:49:23;;;;;;;2.17;0.87;;;;;;;11.79;52.23;101362.44;5052166;28;20167;-72
2021/03/28 12:52:00;;;;;;;0.87;0.87;;;;;;;11.79;52.35;101384.34;5053509;28;20171;-72
2021/03/28 12:54:30;;;;;;;0.80;0.23;;;;;;;11.78;53.28;101372.56;5067223;28;20170;-72
2021/03/28 12:57:01;;;;;;;0.40;0.40;;;;;;;11.82;52.45;101364.59;5071664;28;20170;-72